createdAt,value
2022-09-10T00:01:29.807Z,59.68
2022-09-10T00:03:59.102Z,59.19
2022-09-10T00:06:28.440Z,59.69
2022-09-10T00:08:57.758Z,59.62
2022-09-10T00:11:29.068Z,59.79
2022-09-10T00:13:57.343Z,60.28
2022-09-10T00:16:25.781Z,60.53
2022-09-10T00:18:53.481Z,59.95
2022-09-10T00:21:22.207Z,60.13
2022-09-10T00:23:50.484Z,60.63
2022-09-10T00:26:21.843Z,60.66
2022-09-10T00:28:50.685Z,60.32
2022-09-10T00:31:22.759Z,60.26
2022-09-10T00:33:54.763Z,60.86
2022-09-10T00:36:26.563Z,60.73
2022-09-10T00:38:57.763Z,60.91
2022-09-10T00:41:26.282Z,60.81
2022-09-10T00:43:57.812Z,61.40
2022-09-10T00:46:43.437Z,61.35
2022-09-10T00:49:17.695Z,60.89
2022-09-10T00:51:48.298Z,61.06
2022-09-10T00:54:18.490Z,60.92
2022-09-10T00:56:47.010Z,60.13
2022-09-10T00:59:18.810Z,60.66
2022-09-10T01:01:47.745Z,60.30
2022-09-10T01:04:15.677Z,60.46
2022-09-10T01:06:46.440Z,60.71
2022-09-10T01:09:14.991Z,61.46
2022-09-10T01:12:12.278Z,61.03
2022-09-10T01:15:08.107Z,60.58
2022-09-10T01:17:58.576Z,61.23
2022-09-10T01:20:56.565Z,60.81
2022-09-10T01:24:13.965Z,60.59
2022-09-10T01:27:35.294Z,60.82
2022-09-10T01:30:12.966Z,60.43
2022-09-10T01:32:57.230Z,59.73
2022-09-10T01:35:37.513Z,59.91
2022-09-10T01:38:17.172Z,59.99
2022-09-10T01:40:46.415Z,59.58
2022-09-10T01:43:15.141Z,60.28
2022-09-10T01:46:01.517Z,59.80
2022-09-10T01:49:00.892Z,60.51
2022-09-10T01:51:47.498Z,60.14
2022-09-10T01:54:37.477Z,60.16
2022-09-10T01:57:24.060Z,60.33
2022-09-10T02:00:05.851Z,60.50
2022-09-10T02:02:41.862Z,60.43
2022-09-10T02:05:12.070Z,60.35
2022-09-10T02:07:39.591Z,61.17
2022-09-10T02:10:09.849Z,60.78
2022-09-10T02:12:37.511Z,60.95
2022-09-10T02:15:10.513Z,61.21
2022-09-10T02:17:40.188Z,61.38
2022-09-10T02:20:14.382Z,61.16
2022-09-10T02:22:49.986Z,61.37
2022-09-10T02:25:17.456Z,61.34
2022-09-10T02:27:45.389Z,61.09
2022-09-10T02:30:14.427Z,61.18
2022-09-10T02:32:42.904Z,60.73
2022-09-10T02:35:10.281Z,61.16
2022-09-10T02:37:37.666Z,61.24
2022-09-10T02:40:06.417Z,60.80
2022-09-10T02:42:55.555Z,61.19
2022-09-10T02:45:24.203Z,61.37
2022-09-10T02:47:51.567Z,61.40
2022-09-10T02:50:19.217Z,61.06
2022-09-10T02:52:46.921Z,61.49
2022-09-10T02:55:14.613Z,60.83
2022-09-10T02:57:42.271Z,61.08
2022-09-10T03:00:11.258Z,61.28
2022-09-10T03:02:40.363Z,60.92
2022-09-10T03:05:08.694Z,60.58
2022-09-10T03:07:36.002Z,60.67
2022-09-10T03:10:03.938Z,60.29
2022-09-10T03:12:31.473Z,60.25
2022-09-10T03:14:59.073Z,60.48
2022-09-10T03:17:26.458Z,60.07
2022-09-10T03:19:55.079Z,60.01
2022-09-10T03:22:22.420Z,60.75
2022-09-10T03:24:50.028Z,60.82
2022-09-10T03:27:18.160Z,60.41
2022-09-10T03:29:45.432Z,60.02
2022-09-10T03:32:12.707Z,60.06
2022-09-10T03:34:39.970Z,59.96
2022-09-10T03:37:08.587Z,59.85
2022-09-10T03:39:35.989Z,60.11
2022-09-10T03:42:05.134Z,59.46
2022-09-10T03:44:33.608Z,59.83
2022-09-10T03:47:00.994Z,59.83
2022-09-10T03:49:28.853Z,59.63
2022-09-10T03:51:56.185Z,59.86
2022-09-10T03:54:24.877Z,59.53
2022-09-10T03:56:52.110Z,59.78
2022-09-10T03:59:19.499Z,59.58
2022-09-10T04:01:47.252Z,59.10
2022-09-10T04:04:15.042Z,58.53
2022-09-10T04:06:43.307Z,59.07
2022-09-10T04:09:11.362Z,59.24
2022-09-10T04:11:40.162Z,59.13
2022-09-10T04:14:07.849Z,59.76
2022-09-10T04:16:35.918Z,59.84
2022-09-10T04:19:03.334Z,59.84
2022-09-10T04:21:31.539Z,59.86
2022-09-10T04:24:02.048Z,59.60
2022-09-10T04:26:29.329Z,59.20
2022-09-10T04:28:57.978Z,59.65
2022-09-10T04:31:25.297Z,59.81
2022-09-10T04:33:53.671Z,59.33
2022-09-10T04:36:20.990Z,59.26
2022-09-10T04:38:48.369Z,59.36
2022-09-10T04:41:15.736Z,59.69
2022-09-10T04:43:43.599Z,59.98
2022-09-10T04:46:12.602Z,59.96
2022-09-10T04:51:16.007Z,60.84
2022-09-10T04:53:44.390Z,60.87
2022-09-10T04:56:12.023Z,60.84
2022-09-10T04:58:39.971Z,61.01
2022-09-10T05:01:07.704Z,60.84
2022-09-10T05:03:36.669Z,61.08
2022-09-10T05:06:05.170Z,61.18
2022-09-10T05:08:32.974Z,60.66
2022-09-10T05:11:02.697Z,61.30
2022-09-10T05:13:31.073Z,61.29
2022-09-10T05:16:01.632Z,60.29
2022-09-10T05:18:28.933Z,60.44
2022-09-10T05:20:57.675Z,59.86
2022-09-10T05:23:25.613Z,60.19
2022-09-10T05:25:52.861Z,60.36
2022-09-10T05:28:21.939Z,60.40
2022-09-10T05:30:51.735Z,60.12
2022-09-10T05:33:19.335Z,60.31
2022-09-10T05:35:51.598Z,60.42
2022-09-10T05:38:20.750Z,60.07
2022-09-10T05:40:48.621Z,59.99
2022-09-10T05:43:15.898Z,59.97
2022-09-10T05:45:43.218Z,59.46
2022-09-10T05:48:10.501Z,59.57
2022-09-10T05:50:38.538Z,59.59
2022-09-10T05:53:06.088Z,59.27
2022-09-10T05:55:34.838Z,59.37
2022-09-10T05:58:02.944Z,59.83
2022-09-10T06:00:30.531Z,60.18
2022-09-10T06:02:58.030Z,60.36
2022-09-10T06:05:25.646Z,60.50
2022-09-10T06:07:52.977Z,60.47
2022-09-10T06:10:20.268Z,60.25
2022-09-10T06:12:51.955Z,60.41
2022-09-10T06:15:21.142Z,60.05
2022-09-10T06:17:48.601Z,59.99
2022-09-10T06:20:16.124Z,60.39
2022-09-10T06:22:43.383Z,60.42
2022-09-10T06:25:10.727Z,60.13
2022-09-10T06:27:38.259Z,59.85
2022-09-10T06:30:08.290Z,59.76
2022-09-10T06:32:35.584Z,60.03
2022-09-10T06:35:02.817Z,59.92
2022-09-10T06:37:35.285Z,59.84
2022-09-10T06:40:03.592Z,60.31
2022-09-10T06:42:32.175Z,59.96
2022-09-10T06:45:00.317Z,59.90
2022-09-10T06:50:16.473Z,59.77
2022-09-10T06:52:43.777Z,59.81
2022-09-10T06:55:11.015Z,60.00
2022-09-10T06:57:38.330Z,59.70
2022-09-10T07:00:07.293Z,59.46
2022-09-10T07:02:35.910Z,59.21
2022-09-10T07:05:03.347Z,59.60
2022-09-10T07:07:31.357Z,59.21
2022-09-10T07:09:58.589Z,59.03
2022-09-10T07:12:26.014Z,59.31
2022-09-10T07:14:53.650Z,59.46
2022-09-10T07:17:21.058Z,59.54
2022-09-10T07:19:49.629Z,59.14
2022-09-10T07:22:17.161Z,58.83
2022-09-10T07:24:45.343Z,58.88
2022-09-10T07:27:13.095Z,58.42
2022-09-10T07:29:40.360Z,58.48
2022-09-10T07:32:10.577Z,58.46
2022-09-10T07:34:40.570Z,58.51
2022-09-10T07:37:09.243Z,58.21
2022-09-10T07:39:36.541Z,57.73
2022-09-10T07:42:04.253Z,57.65
2022-09-10T07:44:31.507Z,57.12
2022-09-10T07:46:59.182Z,57.29
2022-09-10T07:49:27.831Z,56.80
2022-09-10T07:51:59.669Z,57.09
2022-09-10T07:54:28.709Z,57.32
2022-09-10T07:56:56.044Z,57.13
2022-09-10T07:59:23.277Z,57.17
2022-09-10T08:01:50.719Z,56.89
2022-09-10T08:04:19.137Z,56.87
2022-09-10T08:06:46.658Z,56.56
2022-09-10T08:09:14.889Z,56.43
2022-09-10T08:11:43.483Z,56.29
2022-09-10T08:14:13.287Z,56.33
2022-09-10T08:16:44.282Z,56.42
2022-09-10T08:19:13.871Z,56.62
2022-09-10T08:21:41.203Z,56.42
2022-09-10T08:24:10.951Z,56.25
2022-09-10T08:26:38.204Z,56.30
2022-09-10T08:29:07.115Z,56.21
2022-09-10T08:31:34.720Z,55.97
2022-09-10T08:34:01.970Z,56.16
2022-09-10T08:36:29.276Z,55.65
2022-09-10T08:39:01.399Z,55.52
2022-09-10T08:41:52.745Z,55.31
2022-09-10T08:44:43.081Z,55.33
2022-09-10T08:47:29.614Z,54.78
2022-09-10T08:50:04.149Z,54.75
2022-09-10T08:52:41.374Z,54.46
2022-09-10T08:55:25.663Z,54.31
2022-09-10T08:57:59.364Z,54.78
2022-09-10T09:00:34.150Z,53.90
2022-09-10T09:03:13.090Z,53.64
2022-09-10T09:05:46.480Z,52.72
2022-09-10T09:08:19.665Z,52.35
2022-09-10T09:10:50.598Z,51.59
2022-09-10T09:14:02.940Z,51.83
2022-09-10T09:16:59.666Z,52.50
2022-09-10T09:19:34.694Z,51.36
2022-09-10T09:22:17.224Z,51.57
2022-09-10T09:24:54.859Z,51.17
2022-09-10T09:27:22.215Z,51.00
2022-09-10T09:29:57.225Z,50.72
2022-09-10T09:32:28.704Z,50.81
2022-09-10T09:35:09.959Z,50.18
2022-09-10T09:37:41.549Z,50.26
2022-09-10T09:40:21.178Z,50.59
2022-09-10T09:42:58.144Z,51.01
2022-09-10T09:45:37.221Z,51.17
2022-09-10T09:48:11.937Z,50.53
2022-09-10T09:50:43.836Z,50.78
2022-09-10T09:53:20.421Z,51.09
2022-09-10T09:55:53.627Z,51.06
2022-09-10T09:58:31.082Z,51.76
2022-09-10T10:01:20.108Z,51.90
2022-09-10T10:03:54.090Z,52.54
2022-09-10T10:06:25.133Z,52.45
2022-09-10T10:09:00.144Z,51.97
2022-09-10T10:11:51.811Z,51.83
2022-09-10T10:14:39.425Z,51.32
2022-09-10T10:17:38.486Z,51.38
2022-09-10T10:20:16.613Z,50.54
2022-09-10T10:22:45.803Z,50.50
2022-09-10T10:25:45.493Z,49.93
2022-09-10T10:28:20.917Z,48.89
2022-09-10T10:30:53.518Z,48.44
2022-09-10T10:33:28.306Z,48.28
2022-09-10T10:36:10.766Z,48.17
2022-09-10T10:38:41.895Z,48.31
2022-09-10T10:41:45.327Z,47.96
2022-09-10T10:44:48.000Z,47.19
2022-09-10T10:47:34.169Z,46.53
2022-09-10T10:50:18.382Z,46.81
2022-09-10T10:53:15.593Z,46.20
2022-09-10T10:55:55.357Z,46.26
2022-09-10T10:58:41.506Z,46.13
2022-09-10T11:01:21.381Z,45.57
2022-09-10T11:04:01.645Z,43.70
2022-09-10T11:06:40.533Z,42.77
2022-09-10T11:09:22.831Z,42.76
2022-09-10T11:11:57.817Z,42.46
2022-09-10T11:14:38.218Z,40.00
2022-09-10T11:17:16.196Z,40.15
2022-09-10T11:20:26.696Z,40.08
2022-09-10T11:22:54.024Z,39.33
2022-09-10T11:25:30.661Z,39.83
2022-09-10T11:28:11.378Z,39.34
2022-09-10T11:30:45.247Z,39.17
2022-09-10T11:33:23.418Z,40.07
2022-09-10T11:36:01.669Z,39.49
2022-09-10T11:38:44.189Z,39.72
2022-09-10T11:41:19.634Z,39.36
2022-09-10T11:44:01.344Z,39.41
2022-09-10T11:46:37.809Z,39.05
2022-09-10T11:49:16.138Z,38.75
2022-09-10T11:51:45.726Z,38.74
2022-09-10T11:54:17.476Z,37.96
2022-09-10T11:57:01.348Z,37.75
2022-09-10T12:00:12.505Z,37.86
2022-09-10T12:03:40.916Z,37.54
2022-09-10T12:06:22.303Z,37.67
2022-09-10T12:09:08.455Z,38.01
2022-09-10T12:11:47.418Z,38.02
2022-09-10T12:14:19.601Z,37.85
2022-09-10T12:16:53.956Z,37.98
2022-09-10T12:19:29.234Z,37.86
2022-09-10T12:22:01.831Z,37.42
2022-09-10T12:24:33.484Z,38.22
2022-09-10T12:27:03.958Z,38.46
2022-09-10T12:29:35.671Z,38.72
2022-09-10T12:32:36.185Z,38.77
2022-09-10T12:35:44.856Z,38.72
2022-09-10T12:38:55.613Z,39.08
2022-09-10T12:42:02.193Z,39.62
2022-09-10T12:44:47.525Z,38.98
2022-09-10T12:47:56.360Z,39.01
2022-09-10T12:50:45.956Z,38.78
2022-09-10T12:53:54.525Z,38.62
2022-09-10T12:57:12.741Z,38.02
2022-09-10T13:00:22.188Z,38.18
2022-09-10T13:02:58.746Z,38.62
2022-09-10T13:05:38.399Z,38.59
2022-09-10T13:08:20.483Z,37.57
2022-09-10T13:11:13.285Z,36.25
2022-09-10T13:13:46.430Z,37.09
2022-09-10T13:16:19.072Z,37.40
2022-09-10T13:18:48.384Z,36.76
2022-09-10T13:21:54.809Z,36.25
2022-09-10T13:24:59.793Z,36.20
2022-09-10T13:27:38.909Z,36.82
2022-09-10T13:30:18.893Z,37.73
2022-09-10T13:32:53.238Z,38.17
2022-09-10T13:36:05.518Z,38.49
2022-09-10T13:39:20.150Z,38.73
2022-09-10T13:42:11.774Z,39.09
2022-09-10T13:45:00.454Z,39.34
2022-09-10T13:47:35.787Z,39.11
2022-09-10T13:50:14.504Z,39.18
2022-09-10T13:52:46.981Z,39.68
2022-09-10T13:55:20.636Z,39.32
2022-09-10T13:57:51.863Z,39.86
2022-09-10T14:00:24.033Z,39.64
2022-09-10T14:02:54.272Z,39.37
2022-09-10T14:05:46.876Z,39.48
2022-09-10T14:08:21.659Z,39.35
2022-09-10T14:10:55.814Z,40.03
2022-09-10T14:13:32.007Z,40.02
2022-09-10T14:16:02.548Z,40.35
2022-09-10T14:18:42.866Z,40.21
2022-09-10T14:21:14.573Z,40.22
2022-09-10T14:23:47.528Z,40.57
2022-09-10T14:26:23.587Z,40.86
2022-09-10T14:28:58.804Z,41.20
2022-09-10T14:31:36.309Z,41.19
2022-09-10T14:34:32.125Z,41.47
2022-09-10T14:37:28.503Z,41.60
2022-09-10T14:39:56.714Z,41.77
2022-09-10T14:42:31.295Z,41.83
2022-09-10T14:44:58.557Z,41.72
2022-09-10T14:47:32.433Z,41.66
2022-09-10T14:50:31.109Z,41.89
2022-09-10T14:52:59.929Z,42.22
2022-09-10T14:55:32.263Z,42.21
2022-09-10T14:57:59.769Z,41.42
2022-09-10T15:00:28.222Z,41.68
2022-09-10T15:02:57.286Z,41.49
2022-09-10T15:05:24.741Z,41.51
2022-09-10T15:07:52.008Z,41.68
2022-09-10T15:10:21.062Z,42.26
2022-09-10T15:12:52.014Z,42.12
2022-09-10T15:15:19.526Z,42.62
2022-09-10T15:17:46.846Z,42.42
2022-09-10T15:20:15.117Z,42.82
2022-09-10T15:22:43.279Z,42.98
2022-09-10T15:25:37.947Z,43.30
2022-09-10T15:28:07.459Z,43.86
2022-09-10T15:30:36.000Z,43.85
2022-09-10T15:33:04.139Z,44.14
2022-09-10T15:35:31.398Z,43.90
2022-09-10T15:38:01.438Z,43.60
2022-09-10T15:40:30.096Z,43.76
2022-09-10T15:42:57.847Z,43.48
2022-09-10T15:45:25.237Z,43.56
2022-09-10T15:47:52.557Z,43.72
2022-09-10T15:50:19.890Z,43.30
2022-09-10T15:52:47.437Z,43.96
2022-09-10T15:55:14.995Z,43.50
2022-09-10T15:57:43.587Z,43.97
2022-09-10T16:00:13.250Z,43.71
2022-09-10T16:02:42.130Z,44.15
2022-09-10T16:05:09.944Z,44.54
2022-09-10T16:07:37.238Z,44.10
2022-09-10T16:10:06.279Z,44.52
2022-09-10T16:12:33.770Z,44.25
2022-09-10T16:15:02.749Z,44.03
2022-09-10T16:17:31.745Z,44.23
2022-09-10T16:20:00.187Z,44.28
2022-09-10T16:22:28.190Z,44.14
2022-09-10T16:24:55.422Z,44.50
2022-09-10T16:27:22.837Z,44.67
2022-09-10T16:29:50.302Z,45.28
2022-09-10T16:32:18.937Z,44.82
2022-09-10T16:34:46.287Z,45.15
2022-09-10T16:37:14.166Z,45.51
2022-09-10T16:39:41.504Z,45.37
2022-09-10T16:42:09.711Z,45.15
2022-09-10T16:44:36.957Z,44.75
2022-09-10T16:47:04.507Z,44.84
2022-09-10T16:49:33.176Z,45.02
2022-09-10T16:52:00.553Z,44.22
2022-09-10T16:54:29.050Z,44.54
2022-09-10T16:56:56.360Z,44.29
2022-09-10T16:59:26.134Z,44.57
2022-09-10T17:01:53.911Z,44.83
2022-09-10T17:04:28.236Z,45.41
2022-09-10T17:06:57.974Z,44.92
2022-09-10T17:09:25.937Z,45.18
2022-09-10T17:11:53.426Z,45.80
2022-09-10T17:14:21.214Z,46.10
2022-09-10T17:16:48.669Z,46.54
2022-09-10T17:19:18.578Z,46.98
2022-09-10T17:21:51.041Z,47.08
2022-09-10T17:24:22.811Z,46.62
2022-09-10T17:26:51.769Z,47.29
2022-09-10T17:29:22.264Z,47.65
2022-09-10T17:31:55.325Z,47.70
2022-09-10T17:34:24.543Z,48.01
2022-09-10T17:36:52.356Z,47.59
2022-09-10T17:39:21.063Z,48.09
2022-09-10T17:41:48.504Z,48.08
2022-09-10T17:44:16.626Z,48.03
2022-09-10T17:46:45.020Z,48.22
2022-09-10T17:49:14.213Z,48.27
2022-09-10T17:51:43.121Z,48.75
2022-09-10T17:54:11.864Z,48.73
2022-09-10T17:56:41.865Z,49.38
2022-09-10T17:59:16.042Z,48.71
2022-09-10T18:01:43.405Z,48.74
2022-09-10T18:04:15.677Z,49.38
2022-09-10T18:06:46.803Z,49.55
2022-09-10T18:09:16.727Z,49.12
2022-09-10T18:11:45.434Z,49.28
2022-09-10T18:14:19.682Z,49.58
2022-09-10T18:16:47.420Z,50.13
2022-09-10T18:19:16.933Z,49.42
2022-09-10T18:21:46.291Z,49.45
2022-09-10T18:24:16.874Z,50.20
2022-09-10T18:26:49.045Z,49.77
2022-09-10T18:29:19.615Z,50.64
2022-09-10T18:31:49.464Z,50.51
2022-09-10T18:34:23.537Z,50.70
2022-09-10T18:36:57.529Z,50.38
2022-09-10T18:39:27.272Z,50.99
2022-09-10T18:41:57.539Z,50.46
2022-09-10T18:44:27.472Z,51.05
2022-09-10T18:46:56.026Z,51.18
2022-09-10T18:49:25.273Z,51.17
2022-09-10T18:51:55.164Z,51.70
2022-09-10T18:54:24.584Z,51.85
2022-09-10T18:56:53.323Z,51.40
2022-09-10T18:59:24.497Z,51.59
2022-09-10T19:01:53.995Z,52.07
2022-09-10T19:04:25.310Z,51.79
2022-09-10T19:06:54.217Z,52.52
2022-09-10T19:09:24.115Z,52.41
2022-09-10T19:11:54.147Z,52.31
2022-09-10T19:14:26.330Z,52.50
2022-09-10T19:16:56.255Z,52.92
2022-09-10T19:19:26.423Z,53.02
2022-09-10T19:21:57.155Z,52.86
2022-09-10T19:24:37.763Z,53.42
2022-09-10T19:27:11.643Z,53.11
2022-09-10T19:29:43.010Z,53.43
2022-09-10T19:32:11.314Z,53.70
2022-09-10T19:34:38.928Z,53.93
2022-09-10T19:37:07.093Z,53.46
2022-09-10T19:39:34.388Z,53.64
2022-09-10T19:42:01.785Z,54.07
2022-09-10T19:44:29.121Z,53.77
2022-09-10T19:46:58.688Z,54.06
2022-09-10T19:49:26.011Z,53.99
2022-09-10T19:51:54.020Z,54.44
2022-09-10T19:54:22.728Z,54.31
2022-09-10T19:56:50.077Z,54.35
2022-09-10T19:59:17.587Z,54.27
2022-09-10T20:01:46.090Z,54.34
2022-09-10T20:04:15.079Z,54.50
2022-09-10T20:06:43.431Z,54.35
2022-09-10T20:09:10.781Z,54.23
2022-09-10T20:11:38.887Z,54.20
2022-09-10T20:14:10.095Z,54.26
2022-09-10T20:16:38.933Z,54.41
2022-09-10T20:19:07.094Z,54.72
2022-09-10T20:21:37.060Z,54.74
2022-09-10T20:24:07.746Z,54.79
2022-09-10T20:26:46.290Z,54.65
2022-09-10T20:29:15.870Z,54.87
2022-09-10T20:31:44.636Z,55.21
2022-09-10T20:34:14.399Z,55.28
2022-09-10T20:36:43.672Z,55.19
2022-09-10T20:39:14.416Z,55.46
2022-09-10T20:41:41.963Z,55.84
2022-09-10T20:44:13.670Z,55.88
2022-09-10T20:46:41.725Z,55.64
2022-09-10T20:49:11.549Z,56.08
2022-09-10T20:51:40.457Z,55.81
2022-09-10T20:54:14.054Z,55.76
2022-09-10T20:56:42.219Z,55.61
2022-09-10T20:59:12.172Z,55.67
2022-09-10T21:01:39.521Z,55.87
2022-09-10T21:04:06.936Z,55.93
2022-09-10T21:06:35.226Z,55.98
2022-09-10T21:09:04.026Z,56.11
2022-09-10T21:11:36.302Z,55.82
2022-09-10T21:14:07.341Z,55.80
2022-09-10T21:16:37.082Z,55.72
2022-09-10T21:19:09.908Z,55.27
2022-09-10T21:21:41.716Z,55.68
2022-09-10T21:24:12.452Z,55.55
2022-09-10T21:26:45.905Z,55.78
2022-09-10T21:29:15.653Z,55.86
2022-09-10T21:31:43.800Z,55.88
2022-09-10T21:34:11.703Z,56.02
2022-09-10T21:36:41.241Z,56.29
2022-09-10T21:39:14.337Z,56.32
2022-09-10T21:41:45.827Z,56.37
2022-09-10T21:44:16.198Z,56.71
2022-09-10T21:46:45.159Z,56.46
2022-09-10T21:49:13.027Z,56.86
2022-09-10T21:51:41.247Z,56.86
2022-09-10T21:54:14.607Z,56.64
2022-09-10T21:56:43.350Z,57.30
2022-09-10T21:59:12.561Z,57.12
2022-09-10T22:01:43.652Z,56.95
2022-09-10T22:04:12.412Z,56.49
2022-09-10T22:06:39.959Z,56.74
2022-09-10T22:09:10.019Z,56.79
2022-09-10T22:11:41.766Z,56.57
2022-09-10T22:14:14.857Z,56.78
2022-09-10T22:16:42.973Z,57.21
2022-09-10T22:19:15.547Z,57.17
2022-09-10T22:21:42.907Z,57.06
2022-09-10T22:24:13.080Z,57.37
2022-09-10T22:26:43.241Z,57.55
2022-09-10T22:29:15.358Z,57.06
2022-09-10T22:31:42.814Z,57.16
2022-09-10T22:34:13.706Z,56.68
2022-09-10T22:36:44.043Z,56.77
2022-09-10T22:39:14.169Z,56.54
2022-09-10T22:41:41.889Z,57.03
2022-09-10T22:44:11.197Z,56.76
2022-09-10T22:46:40.034Z,56.81
2022-09-10T22:49:08.517Z,57.10
2022-09-10T22:51:40.831Z,57.22
2022-09-10T22:54:10.649Z,57.18
2022-09-10T22:56:38.377Z,57.26
2022-09-10T22:59:06.958Z,57.74
2022-09-10T23:01:38.350Z,57.41
2022-09-10T23:04:08.007Z,57.55
2022-09-10T23:06:38.613Z,57.78
2022-09-10T23:09:10.635Z,57.65
2022-09-10T23:11:39.120Z,57.71
2022-09-10T23:14:11.083Z,57.55
2022-09-10T23:16:42.348Z,57.75
2022-09-10T23:19:14.033Z,57.45
2022-09-10T23:21:44.174Z,57.97
2022-09-10T23:24:14.405Z,57.52
2022-09-10T23:26:43.035Z,57.49
2022-09-10T23:29:11.071Z,57.75
2022-09-10T23:31:40.959Z,58.01
2022-09-10T23:34:12.463Z,57.64
2022-09-10T23:36:58.303Z,58.32
2022-09-10T23:39:25.592Z,58.20
2022-09-10T23:41:56.766Z,57.71
2022-09-10T23:44:24.601Z,57.90
2022-09-10T23:46:53.594Z,57.80
2022-09-10T23:49:21.382Z,57.99
2022-09-10T23:51:49.110Z,58.02
2022-09-10T23:54:17.114Z,58.28
2022-09-10T23:56:44.702Z,58.18
2022-09-10T23:59:12.467Z,58.18
